Time;durP1;ratioP1;P1;durP2;ratioP2;P2;SDS_P1;SDS_P2;PMS_P1;PMS_P2;Temp;Humidity;BMP_temperature;BMP_pressure;BME280_temperature;BME280_humidity;BME280_pressure;Samples;Min_cycle;Max_cycle;Signal;HPM_P1;HPM_P2
2023/01/09 00:01:33;;;;;;;8.95;4.68;;;;;;;;;;5017444;28;20049;-83
2023/01/09 00:03:58;;;;;;;8.50;4.72;;;;;;;;;;5016137;28;20045;-82
2023/01/09 00:06:24;;;;;;;8.43;4.72;;;;;;;;;;5017107;28;20092;-82
2023/01/09 00:08:49;;;;;;;9.35;5.40;;;;;;;;;;5000780;28;20034;-83
2023/01/09 00:11:15;;;;;;;10.20;5.35;;;;;;;;;;5018033;28;20053;-82
2023/01/09 00:13:40;;;;;;;8.82;4.70;;;;;;;;;;5017370;28;20412;-83
2023/01/09 00:16:07;;;;;;;6.45;4.40;;;;;;;;;;4999531;28;20064;-83
2023/01/09 00:18:34;;;;;;;8.25;4.43;;;;;;;;;;5017971;28;20116;-83
2023/01/09 00:21:04;;;;;;;7.63;4.22;;;;;;;;;;5019038;28;20052;-81
2023/01/09 00:23:29;;;;;;;8.00;4.38;;;;;;;;;;5000399;28;20033;-83
2023/01/09 00:26:04;;;;;;;8.60;4.20;;;;;;;;;;5016524;28;20034;-82
2023/01/09 00:28:30;;;;;;;7.43;3.97;;;;;;;;;;5017069;28;20088;-83
2023/01/09 00:30:57;;;;;;;8.25;4.70;;;;;;;;;;5016833;28;20414;-80
2023/01/09 00:33:32;;;;;;;7.35;4.05;;;;;;;;;;5000436;28;20034;-83
2023/01/09 00:35:58;;;;;;;6.63;4.10;;;;;;;;;;5018016;28;20482;-81
2023/01/09 00:38:23;;;;;;;7.18;4.20;;;;;;;;;;5017846;28;20044;-81
2023/01/09 00:40:49;;;;;;;8.93;3.80;;;;;;;;;;5017955;28;20025;-84
2023/01/09 00:43:16;;;;;;;7.50;4.10;;;;;;;;;;5016961;28;20448;-84
2023/01/09 00:45:41;;;;;;;8.00;4.18;;;;;;;;;;5017072;28;20038;-80
2023/01/09 00:48:12;;;;;;;6.05;3.60;;;;;;;;;;5018461;28;20042;-84
2023/01/09 00:50:37;;;;;;;15.82;7.55;;;;;;;;;;5016237;28;20402;-83
2023/01/09 00:53:10;;;;;;;42.40;16.35;;;;;;;;;;5017959;28;20034;-84
2023/01/09 00:55:37;;;;;;;29.90;12.77;;;;;;;;;;5017647;28;20033;-83
2023/01/09 00:58:02;;;;;;;17.70;8.60;;;;;;;;;;5016222;28;20045;-83
2023/01/09 01:00:28;;;;;;;16.38;6.90;;;;;;;;;;5016837;28;20137;-81
2023/01/09 01:02:53;;;;;;;10.10;5.00;;;;;;;;;;5017540;28;20038;-83
2023/01/09 01:08:15;;;;;;;7.13;4.25;;;;;;;;;;5016957;28;20037;-82
2023/01/09 01:10:42;;;;;;;6.20;3.85;;;;;;;;;;5015772;28;20056;-82
2023/01/09 01:13:08;;;;;;;6.97;3.92;;;;;;;;;;5018068;28;20034;-82
2023/01/09 01:15:34;;;;;;;6.68;4.18;;;;;;;;;;5014533;28;20583;-83
2023/01/09 01:17:59;;;;;;;10.27;4.00;;;;;;;;;;5017380;28;20113;-81
2023/01/09 01:20:26;;;;;;;7.00;4.00;;;;;;;;;;5016428;28;20022;-83
2023/01/09 01:22:51;;;;;;;6.40;3.85;;;;;;;;;;5015929;28;20041;-82
2023/01/09 01:25:16;;;;;;;6.13;3.38;;;;;;;;;;5015781;28;20093;-82
2023/01/09 01:27:43;;;;;;;5.60;3.45;;;;;;;;;;5018000;28;20041;-83
2023/01/09 01:30:12;;;;;;;5.63;3.70;;;;;;;;;;5015773;28;20034;-83
2023/01/09 01:32:38;;;;;;;6.43;3.60;;;;;;;;;;5017737;28;20076;-82
2023/01/09 01:35:04;;;;;;;6.45;3.92;;;;;;;;;;5016722;28;20042;-83
2023/01/09 01:37:30;;;;;;;7.80;4.22;;;;;;;;;;5016882;28;20469;-82
2023/01/09 01:39:56;;;;;;;8.40;4.00;;;;;;;;;;5017812;28;20112;-82
2023/01/09 01:42:22;;;;;;;7.38;3.80;;;;;;;;;;5017141;28;20034;-82
2023/01/09 01:44:56;;;;;;;8.40;4.45;;;;;;;;;;5016479;28;20068;-82
2023/01/09 01:47:27;;;;;;;7.85;4.30;;;;;;;;;;5017582;28;20037;-82
2023/01/09 01:49:54;;;;;;;8.65;4.18;;;;;;;;;;5015443;28;20045;-83
2023/01/09 01:52:20;;;;;;;6.55;4.25;;;;;;;;;;4999563;28;20394;-82
2023/01/09 01:54:47;;;;;;;7.18;4.25;;;;;;;;;;5014393;28;20483;-82
2023/01/09 01:57:13;;;;;;;30.15;18.27;;;;;;;;;;5015971;28;20026;-82
2023/01/09 01:59:48;;;;;;;17.42;10.93;;;;;;;;;;5017526;28;20030;-82
2023/01/09 02:02:17;;;;;;;14.45;7.65;;;;;;;;;;5016552;28;20099;-83
2023/01/09 02:04:44;;;;;;;10.23;5.22;;;;;;;;;;5016534;28;20034;-82
2023/01/09 02:07:09;;;;;;;7.15;4.25;;;;;;;;;;5016694;28;20109;-82
2023/01/09 02:09:38;;;;;;;7.85;4.03;;;;;;;;;;5015179;28;20061;-83
2023/01/09 02:12:24;;;;;;;12.10;7.07;;;;;;;;;;5015324;28;20042;-84
2023/01/09 02:15:05;;;;;;;8.57;5.10;;;;;;;;;;5014558;28;20038;-81
2023/01/09 02:18:12;;;;;;;9.00;4.35;;;;;;;;;;5015240;28;20042;-83
2023/01/09 02:20:48;;;;;;;14.30;5.03;;;;;;;;;;4997793;28;20038;-82
2023/01/09 02:23:49;;;;;;;9.18;4.78;;;;;;;;;;5018647;28;20034;-82
2023/01/09 02:26:41;;;;;;;7.18;3.70;;;;;;;;;;4968332;28;20042;-82
2023/01/09 02:29:28;;;;;;;8.20;3.58;;;;;;;;;;5002741;28;20056;-84
2023/01/09 02:32:12;;;;;;;6.50;3.80;;;;;;;;;;5020692;28;20042;-82
2023/01/09 02:34:51;;;;;;;7.93;4.00;;;;;;;;;;5002123;28;20084;-82
2023/01/09 02:37:56;;;;;;;6.07;3.67;;;;;;;;;;5020100;28;20065;-82
2023/01/09 02:40:47;;;;;;;5.93;3.70;;;;;;;;;;5006061;28;20076;-82
2023/01/09 02:43:13;;;;;;;7.03;3.42;;;;;;;;;;5020389;28;20042;-82
2023/01/09 02:45:39;;;;;;;5.45;3.45;;;;;;;;;;5018480;28;20034;-84
2023/01/09 02:48:04;;;;;;;5.80;3.63;;;;;;;;;;5019321;28;20034;-82
2023/01/09 02:50:35;;;;;;;5.88;3.28;;;;;;;;;;5018710;28;20045;-82
2023/01/09 02:53:31;;;;;;;7.88;3.67;;;;;;;;;;5002385;28;20048;-82
2023/01/09 02:56:22;;;;;;;6.15;3.53;;;;;;;;;;5018030;28;20033;-81
2023/01/09 02:59:10;;;;;;;9.00;5.57;;;;;;;;;;5018536;28;20104;-82
2023/01/09 03:01:54;;;;;;;6.85;4.10;;;;;;;;;;5019829;28;20038;-81
2023/01/09 03:04:42;;;;;;;6.78;3.80;;;;;;;;;;5017973;28;20034;-83
2023/01/09 03:07:18;;;;;;;7.28;4.20;;;;;;;;;;5019747;28;20038;-83
2023/01/09 03:09:47;;;;;;;6.78;3.85;;;;;;;;;;5018730;28;20038;-82
2023/01/09 03:12:17;;;;;;;7.15;3.80;;;;;;;;;;5018122;28;20041;-83
2023/01/09 03:14:49;;;;;;;5.93;3.67;;;;;;;;;;5001083;28;20030;-82
2023/01/09 03:17:21;;;;;;;6.15;3.55;;;;;;;;;;5019682;28;20049;-82
2023/01/09 03:19:49;;;;;;;6.13;3.55;;;;;;;;;;5002431;28;20486;-83
2023/01/09 03:22:14;;;;;;;6.10;3.58;;;;;;;;;;5018264;28;20119;-82
2023/01/09 03:24:40;;;;;;;7.63;3.95;;;;;;;;;;5019226;28;20034;-85
2023/01/09 03:27:08;;;;;;;6.93;3.75;;;;;;;;;;5018676;28;20029;-82
2023/01/09 03:29:34;;;;;;;6.63;4.25;;;;;;;;;;5019287;28;20037;-84
2023/01/09 03:31:59;;;;;;;6.22;3.80;;;;;;;;;;5001421;28;20039;-83
2023/01/09 03:34:25;;;;;;;6.80;3.88;;;;;;;;;;5001231;28;20045;-82
2023/01/09 03:36:50;;;;;;;7.13;3.80;;;;;;;;;;5018110;28;20063;-83
2023/01/09 03:39:16;;;;;;;5.82;3.88;;;;;;;;;;5019612;28;20076;-82
2023/01/09 03:41:41;;;;;;;7.40;3.70;;;;;;;;;;5017496;28;20033;-82
2023/01/09 03:44:06;;;;;;;6.25;3.40;;;;;;;;;;5000742;28;20096;-84
2023/01/09 03:46:32;;;;;;;5.88;3.75;;;;;;;;;;5017964;28;20398;-83
2023/01/09 03:48:57;;;;;;;7.85;3.50;;;;;;;;;;5017181;28;20052;-82
2023/01/09 03:51:23;;;;;;;5.93;3.47;;;;;;;;;;5017988;28;20133;-83
2023/01/09 03:53:48;;;;;;;6.68;3.72;;;;;;;;;;5017553;28;20049;-83
2023/01/09 03:56:14;;;;;;;5.03;3.53;;;;;;;;;;5017736;28;20120;-83
2023/01/09 03:58:39;;;;;;;6.53;3.60;;;;;;;;;;5017040;28;20457;-82
2023/01/09 04:01:08;;;;;;;7.00;4.13;;;;;;;;;;5017428;28;20037;-84
2023/01/09 04:03:33;;;;;;;6.95;3.95;;;;;;;;;;5018627;28;20109;-83
2023/01/09 04:06:00;;;;;;;6.50;4.10;;;;;;;;;;5017539;28;20508;-82
2023/01/09 04:08:25;;;;;;;5.95;3.78;;;;;;;;;;5018243;28;20059;-83
2023/01/09 04:10:51;;;;;;;7.15;3.90;;;;;;;;;;5017673;28;20057;-82
2023/01/09 04:13:17;;;;;;;9.32;4.25;;;;;;;;;;5016340;28;20034;-83
2023/01/09 04:15:42;;;;;;;6.47;3.63;;;;;;;;;;5016436;28;20049;-83
2023/01/09 04:18:08;;;;;;;7.75;4.20;;;;;;;;;;4999790;28;20080;-82
2023/01/09 04:20:33;;;;;;;6.80;3.83;;;;;;;;;;4999948;28;20045;-83
2023/01/09 04:22:59;;;;;;;7.20;3.95;;;;;;;;;;5017802;28;20168;-83
2023/01/09 04:25:25;;;;;;;7.28;3.78;;;;;;;;;;5015620;28;20034;-83
2023/01/09 04:27:52;;;;;;;7.40;3.83;;;;;;;;;;5017297;28;20062;-83
2023/01/09 04:30:18;;;;;;;7.72;4.15;;;;;;;;;;5017532;28;20168;-82
2023/01/09 04:32:43;;;;;;;6.53;4.18;;;;;;;;;;5017604;28;20045;-83
2023/01/09 04:35:09;;;;;;;6.93;4.40;;;;;;;;;;5016828;28;20107;-83
2023/01/09 04:37:38;;;;;;;6.35;3.90;;;;;;;;;;5016439;28;20115;-83
2023/01/09 04:40:10;;;;;;;5.28;3.85;;;;;;;;;;5015613;28;20033;-82
2023/01/09 04:42:39;;;;;;;5.85;3.80;;;;;;;;;;5016784;28;20065;-84
2023/01/09 04:45:07;;;;;;;6.68;3.63;;;;;;;;;;5016216;28;20129;-82
2023/01/09 04:47:32;;;;;;;7.53;4.35;;;;;;;;;;5015134;28;20044;-82
2023/01/09 04:49:58;;;;;;;6.63;4.03;;;;;;;;;;5016050;28;20045;-84
2023/01/09 04:52:25;;;;;;;5.35;3.42;;;;;;;;;;5017845;28;20049;-82
2023/01/09 04:54:50;;;;;;;6.47;3.85;;;;;;;;;;5015481;28;20037;-82
2023/01/09 04:57:16;;;;;;;6.75;4.00;;;;;;;;;;4999901;28;20092;-82
2023/01/09 04:59:41;;;;;;;7.05;3.92;;;;;;;;;;5016077;28;20033;-83
2023/01/09 05:02:07;;;;;;;7.13;3.90;;;;;;;;;;5017194;28;20030;-82
2023/01/09 05:04:32;;;;;;;8.63;3.42;;;;;;;;;;5016353;28;20029;-83
2023/01/09 05:06:58;;;;;;;5.45;3.50;;;;;;;;;;5017096;28;20387;-83
2023/01/09 05:09:23;;;;;;;7.60;3.65;;;;;;;;;;5016951;28;20467;-84
2023/01/09 05:11:49;;;;;;;7.65;3.95;;;;;;;;;;5016951;28;20037;-82
2023/01/09 05:14:15;;;;;;;5.75;3.70;;;;;;;;;;5017072;28;20033;-83
2023/01/09 05:16:41;;;;;;;5.57;3.60;;;;;;;;;;5015833;28;20034;-83
2023/01/09 05:19:07;;;;;;;6.25;3.65;;;;;;;;;;5017553;28;20066;-82
2023/01/09 05:21:32;;;;;;;5.20;3.40;;;;;;;;;;5016834;28;20091;-83
2023/01/09 05:23:58;;;;;;;7.05;3.92;;;;;;;;;;4999213;28;20034;-81
2023/01/09 05:26:23;;;;;;;5.28;3.50;;;;;;;;;;5014599;28;20662;-83
2023/01/09 05:28:55;;;;;;;9.07;5.00;;;;;;;;;;5016263;28;20038;-83
2023/01/09 05:31:21;;;;;;;8.77;4.57;;;;;;;;;;5015688;28;20038;-83
2023/01/09 05:33:47;;;;;;;7.78;4.10;;;;;;;;;;5015942;28;20514;-82
2023/01/09 05:36:12;;;;;;;6.05;3.63;;;;;;;;;;5014326;28;20033;-83
2023/01/09 05:38:38;;;;;;;8.07;4.22;;;;;;;;;;5014930;28;20061;-82
2023/01/09 05:41:04;;;;;;;6.32;3.92;;;;;;;;;;5015354;28;20037;-82
2023/01/09 05:43:30;;;;;;;5.93;3.97;;;;;;;;;;4999221;28;20038;-84
2023/01/09 05:45:55;;;;;;;9.85;4.47;;;;;;;;;;5015866;28;20038;-83
2023/01/09 05:48:21;;;;;;;7.72;3.60;;;;;;;;;;5015150;28;20041;-84
2023/01/09 05:50:46;;;;;;;7.97;4.10;;;;;;;;;;5014849;28;20038;-82
2023/01/09 05:53:11;;;;;;;5.05;3.38;;;;;;;;;;5017218;28;20030;-82
2023/01/09 05:55:37;;;;;;;5.78;2.88;;;;;;;;;;5019765;28;20038;-85
2023/01/09 05:58:02;;;;;;;2.38;1.40;;;;;;;;;;5021577;28;20041;-82
2023/01/09 06:00:28;;;;;;;4.60;1.60;;;;;;;;;;5023101;28;20119;-83
2023/01/09 06:02:53;;;;;;;2.50;1.60;;;;;;;;;;5021165;28;20048;-83
2023/01/09 06:05:19;;;;;;;3.42;1.40;;;;;;;;;;5020613;28;20406;-85
2023/01/09 06:07:44;;;;;;;1.50;1.05;;;;;;;;;;5021424;28;20029;-83
2023/01/09 06:10:11;;;;;;;1.00;0.75;;;;;;;;;;5020583;28;20060;-83
2023/01/09 06:12:37;;;;;;;1.77;0.50;;;;;;;;;;5020989;28;20577;-82
2023/01/09 06:15:04;;;;;;;0.20;0.20;;;;;;;;;;5020485;28;20040;-83
2023/01/09 06:17:29;;;;;;;4.38;0.50;;;;;;;;;;5020376;28;20037;-84
2023/01/09 06:19:55;;;;;;;0.20;0.20;;;;;;;;;;5003938;28;20030;-83
2023/01/09 06:22:20;;;;;;;0.40;0.22;;;;;;;;;;5021391;28;20034;-84
2023/01/09 06:24:46;;;;;;;0.08;0.03;;;;;;;;;;5021081;28;20034;-84
2023/01/09 06:27:11;;;;;;;0.25;0.10;;;;;;;;;;5001894;28;20037;-84
2023/01/09 06:29:38;;;;;;;0.20;0.20;;;;;;;;;;5019603;28;20029;-83
2023/01/09 06:32:03;;;;;;;0.20;0.13;;;;;;;;;;5002420;28;20034;-84
2023/01/09 06:34:29;;;;;;;0.30;0.30;;;;;;;;;;5020764;28;20049;-84
2023/01/09 06:36:54;;;;;;;0.10;0.10;;;;;;;;;;5022465;28;20097;-83
2023/01/09 06:39:20;;;;;;;0.00;0.00;;;;;;;;;;5005369;28;20038;-83
2023/01/09 06:41:45;;;;;;;0.10;0.10;;;;;;;;;;5023465;28;20032;-84
2023/01/09 06:44:11;;;;;;;0.10;0.10;;;;;;;;;;5020707;28;20033;-85
2023/01/09 06:46:36;;;;;;;0.10;0.10;;;;;;;;;;5022441;28;20045;-83
2023/01/09 06:49:02;;;;;;;0.10;0.10;;;;;;;;;;5021492;28;20042;-83
2023/01/09 06:51:27;;;;;;;0.10;0.10;;;;;;;;;;5020974;28;20038;-81
2023/01/09 06:53:53;;;;;;;0.60;0.30;;;;;;;;;;5021119;28;20042;-84
2023/01/09 06:56:19;;;;;;;0.35;0.22;;;;;;;;;;5019804;28;20513;-83
2023/01/09 06:58:44;;;;;;;0.73;0.20;;;;;;;;;;5021806;28;20068;-84
2023/01/09 07:01:10;;;;;;;0.10;0.10;;;;;;;;;;5020488;28;20034;-83
2023/01/09 07:03:35;;;;;;;0.20;0.10;;;;;;;;;;5003118;28;20103;-84
2023/01/09 07:06:01;;;;;;;0.22;0.20;;;;;;;;;;5019839;28;20030;-83
2023/01/09 07:08:26;;;;;;;0.10;0.10;;;;;;;;;;5020545;28;20038;-82
2023/01/09 07:10:52;;;;;;;0.20;0.20;;;;;;;;;;5018925;28;20157;-83
2023/01/09 07:13:17;;;;;;;0.22;0.20;;;;;;;;;;5003385;28;20461;-84
2023/01/09 07:15:43;;;;;;;0.20;0.20;;;;;;;;;;5018336;28;20566;-82
2023/01/09 07:18:08;;;;;;;0.20;0.10;;;;;;;;;;5020526;28;20387;-82
2023/01/09 07:20:34;;;;;;;0.15;0.10;;;;;;;;;;5018971;28;20045;-82
2023/01/09 07:22:59;;;;;;;0.73;0.40;;;;;;;;;;5001111;28;20066;-81
2023/01/09 07:25:24;;;;;;;0.28;0.28;;;;;;;;;;5016032;28;20065;-82
2023/01/09 07:27:50;;;;;;;0.38;0.20;;;;;;;;;;5017760;28;20042;-83
2023/01/09 07:30:16;;;;;;;0.47;0.38;;;;;;;;;;5017872;28;20034;-82
2023/01/09 07:32:41;;;;;;;0.15;0.10;;;;;;;;;;5020559;28;20514;-82
2023/01/09 07:35:08;;;;;;;0.00;0.00;;;;;;;;;;5036563;28;20071;-81
2023/01/09 07:37:34;;;;;;;0.10;0.10;;;;;;;;;;5038686;28;20100;-80
2023/01/09 07:40:00;;;;;;;0.10;0.10;;;;;;;;;;5037852;28;20084;-80
2023/01/09 07:42:26;;;;;;;0.22;0.10;;;;;;;;;;5038451;28;20041;-82
2023/01/09 07:44:51;;;;;;;0.15;0.10;;;;;;;;;;5031295;28;20041;-81
2023/01/09 07:47:17;;;;;;;0.25;0.20;;;;;;;;;;5020380;28;20128;-80
2023/01/09 07:49:42;;;;;;;1.15;0.10;;;;;;;;;;5019729;28;20034;-81
2023/01/09 07:52:08;;;;;;;0.75;0.30;;;;;;;;;;5019018;28;20049;-81
2023/01/09 07:54:33;;;;;;;0.20;0.20;;;;;;;;;;5020803;28;20054;-81
2023/01/09 07:56:59;;;;;;;1.52;0.30;;;;;;;;;;5003844;28;20038;-82
2023/01/09 07:59:26;;;;;;;0.47;0.20;;;;;;;;;;5022148;28;20047;-80
2023/01/09 08:01:52;;;;;;;0.30;0.15;;;;;;;;;;5019422;28;20050;-82
2023/01/09 08:04:17;;;;;;;0.25;0.20;;;;;;;;;;5021679;28;20045;-82
2023/01/09 08:06:43;;;;;;;0.50;0.35;;;;;;;;;;5017999;28;20030;-80
2023/01/09 08:09:09;;;;;;;0.20;0.10;;;;;;;;;;5018606;28;20073;-81
2023/01/09 08:11:35;;;;;;;0.22;0.22;;;;;;;;;;5019369;28;20144;-82
2023/01/09 08:14:00;;;;;;;0.47;0.17;;;;;;;;;;5001213;28;20041;-81
2023/01/09 08:16:26;;;;;;;0.30;0.20;;;;;;;;;;5017837;28;20120;-83
2023/01/09 08:18:51;;;;;;;0.50;0.20;;;;;;;;;;5015170;28;20036;-83
2023/01/09 08:21:17;;;;;;;1.27;0.20;;;;;;;;;;5017627;28;20061;-83
2023/01/09 08:23:44;;;;;;;0.55;0.20;;;;;;;;;;5017018;28;20096;-82
2023/01/09 08:26:10;;;;;;;0.10;0.10;;;;;;;;;;5015921;28;20040;-83
2023/01/09 08:28:35;;;;;;;1.05;0.30;;;;;;;;;;5017661;28;20054;-82
2023/01/09 08:31:01;;;;;;;0.28;0.15;;;;;;;;;;5015175;28;20025;-83
2023/01/09 08:33:26;;;;;;;0.20;0.13;;;;;;;;;;5018952;28;20133;-84
2023/01/09 08:35:52;;;;;;;0.30;0.20;;;;;;;;;;5015874;28;20387;-83
2023/01/09 08:38:25;;;;;;;0.20;0.20;;;;;;;;;;5113203;27;20426;-83
2023/01/09 08:40:50;;;;;;;0.10;0.10;;;;;;;;;;5112776;28;20027;-85
2023/01/09 08:48:44;;;;;;;0.20;0.20;;;;;;;;;;5112397;28;20036;-84
2023/01/09 08:51:10;;;;;;;0.57;0.20;;;;;;;;;;5112509;28;20039;-84
2023/01/09 08:53:36;;;;;;;0.45;0.20;;;;;;;;;;5111878;28;20537;-84
2023/01/09 08:56:02;;;;;;;0.35;0.20;;;;;;;;;;5111861;28;20036;-83
2023/01/09 08:58:28;;;;;;;0.52;0.50;;;;;;;;;;5112929;28;20110;-84
2023/01/09 09:00:54;;;;;;;0.40;0.40;;;;;;;;;;5112534;28;20036;-84
2023/01/09 09:03:20;;;;;;;2.85;1.10;;;;;;;;;;5111021;28;20387;-84
2023/01/09 09:05:46;;;;;;;0.40;0.20;;;;;;;;;;5110843;28;20039;-81
2023/01/09 09:08:11;;;;;;;0.20;0.20;;;;;;;;;;5113295;28;20136;-83
2023/01/09 09:10:37;;;;;;;0.20;0.20;;;;;;;;;;5112883;28;20492;-83
2023/01/09 09:13:02;;;;;;;0.25;0.17;;;;;;;;;;5113192;28;20040;-83
2023/01/09 09:15:28;;;;;;;1.83;0.20;;;;;;;;;;5114760;28;20046;-83
2023/01/09 09:17:59;;;;;;;0.25;0.25;;;;;;;;;;5112490;28;20448;-83
2023/01/09 09:20:28;;;;;;;1.30;0.75;;;;;;;;;;5114107;28;20083;-83
2023/01/09 09:22:53;;;;;;;0.63;0.20;;;;;;;;;;5112071;28;20085;-83
2023/01/09 09:25:19;;;;;;;1.80;0.40;;;;;;;;;;5093761;28;20491;-82
2023/01/09 09:27:45;;;;;;;1.02;0.63;;;;;;;;;;5112376;28;20024;-84
2023/01/09 09:30:13;;;;;;;0.93;0.50;;;;;;;;;;5112963;28;20043;-84
2023/01/09 09:32:39;;;;;;;0.20;0.20;;;;;;;;;;5112093;28;20039;-84
2023/01/09 09:35:05;;;;;;;1.23;0.20;;;;;;;;;;5111500;28;20032;-84
2023/01/09 09:37:31;;;;;;;2.47;0.20;;;;;;;;;;5113116;28;20036;-85
2023/01/09 09:39:56;;;;;;;0.47;0.30;;;;;;;;;;5111681;28;20050;-83
2023/01/09 09:46:01;;;;;;;0.47;0.30;;;;;;;;;;5108915;28;20054;-85
2023/01/09 09:48:33;;;;;;;1.65;0.28;;;;;;;;;;5104297;28;20039;-84
2023/01/09 09:51:06;;;;;;;0.30;0.20;;;;;;;;;;5098744;28;20122;-86
2023/01/09 09:53:38;;;;;;;1.83;0.50;;;;;;;;;;5098491;28;20032;-84
2023/01/09 09:56:04;;;;;;;0.50;0.40;;;;;;;;;;5096182;28;20036;-84
2023/01/09 09:58:36;;;;;;;1.65;0.20;;;;;;;;;;5096287;28;20044;-83
2023/01/09 10:01:02;;;;;;;0.22;0.22;;;;;;;;;;5079202;28;20079;-86
2023/01/09 10:03:45;;;;;;;2.83;0.40;;;;;;;;;;5098335;28;20039;-85
2023/01/09 10:06:31;;;;;;;0.50;0.35;;;;;;;;;;5098384;28;20043;-85
2023/01/09 10:09:09;;;;;;;0.32;0.20;;;;;;;;;;5099206;28;20036;-83
2023/01/09 10:11:57;;;;;;;16.15;0.60;;;;;;;;;;5098737;28;20101;-84
2023/01/09 10:14:23;;;;;;;0.20;0.20;;;;;;;;;;5084260;28;20454;-85
2023/01/09 10:16:49;;;;;;;1.05;0.30;;;;;;;;;;5097255;28;20499;-84
2023/01/09 10:19:42;;;;;;;1.38;0.32;;;;;;;;;;5098704;28;20078;-85
2023/01/09 10:22:36;;;;;;;0.65;0.30;;;;;;;;;;5080339;28;20551;-83
2023/01/09 10:25:20;;;;;;;;;;;;;;;;;;5095425;28;20040;-85
2023/01/09 10:27:54;;;;;;;0.55;0.30;;;;;;;;;;5098538;28;19912;-85
2023/01/09 10:30:36;;;;;;;0.73;0.40;;;;;;;;;;5097382;28;20036;-85
2023/01/09 10:33:16;;;;;;;0.95;0.32;;;;;;;;;;5098487;28;20032;-85
2023/01/09 10:35:54;;;;;;;1.00;0.30;;;;;;;;;;5097774;28;20447;-84
2023/01/09 10:38:32;;;;;;;1.15;0.30;;;;;;;;;;5097878;28;20028;-84
2023/01/09 10:41:11;;;;;;;1.00;0.40;;;;;;;;;;5098793;28;20063;-84
2023/01/09 10:43:58;;;;;;;0.73;0.40;;;;;;;;;;5097373;28;20543;-83
2023/01/09 10:46:40;;;;;;;1.10;0.70;;;;;;;;;;5098287;28;20050;-84
2023/01/09 10:49:15;;;;;;;0.90;0.50;;;;;;;;;;5097045;28;20043;-83
2023/01/09 10:51:47;;;;;;;0.80;0.30;;;;;;;;;;5112417;22;20058;-81
2023/01/09 10:54:17;;;;;;;0.68;0.30;;;;;;;;;;5056429;28;20046;-81
2023/01/09 10:57:11;;;;;;;0.63;0.38;;;;;;;;;;5056928;28;20068;-81
2023/01/09 10:59:39;;;;;;;1.20;0.40;;;;;;;;;;5053672;28;20053;-81
2023/01/09 11:02:08;;;;;;;1.48;0.28;;;;;;;;;;5044548;28;20044;-82
2023/01/09 11:04:36;;;;;;;1.85;0.40;;;;;;;;;;5058272;28;20599;-82
2023/01/09 11:07:11;;;;;;;1.38;0.45;;;;;;;;;;5040575;28;20031;-80
2023/01/09 11:09:59;;;;;;;0.30;0.20;;;;;;;;;;5058054;28;20040;-80
2023/01/09 11:12:30;;;;;;;1.70;0.30;;;;;;;;;;5075238;28;20033;-80
2023/01/09 11:15:15;;;;;;;0.80;0.28;;;;;;;;;;5074644;28;20043;-80
2023/01/09 11:17:42;;;;;;;0.65;0.32;;;;;;;;;;5074886;28;20029;-81
2023/01/09 11:20:26;;;;;;;0.30;0.20;;;;;;;;;;5075425;28;20031;-83
2023/01/09 11:22:53;;;;;;;;;;;;;;;;;;5057603;28;20040;-77
2023/01/09 11:25:21;;;;;;;1.25;0.30;;;;;;;;;;5072971;28;19916;-82
2023/01/09 11:28:05;;;;;;;1.38;0.38;;;;;;;;;;5075575;28;20029;-81
2023/01/09 11:30:49;;;;;;;0.30;0.30;;;;;;;;;;5076383;28;20045;-81
2023/01/09 11:33:20;;;;;;;0.90;0.45;;;;;;;;;;5057471;28;20083;-82
2023/01/09 11:36:09;;;;;;;0.65;0.30;;;;;;;;;;5056988;28;20557;-82
2023/01/09 11:39:04;;;;;;;1.48;0.40;;;;;;;;;;5075228;28;20107;-81
2023/01/09 11:41:34;;;;;;;1.10;0.30;;;;;;;;;;5057370;28;20408;-82
2023/01/09 11:44:02;;;;;;;1.42;0.45;;;;;;;;;;5057560;28;20111;-81
2023/01/09 11:46:41;;;;;;;1.48;0.40;;;;;;;;;;5074952;28;20469;-80
2023/01/09 11:49:29;;;;;;;0.50;0.30;;;;;;;;;;5074913;28;20048;-80
2023/01/09 11:52:03;;;;;;;0.77;0.30;;;;;;;;;;5074731;28;20101;-80
2023/01/09 11:54:33;;;;;;;1.00;0.50;;;;;;;;;;5075142;28;20496;-82
2023/01/09 11:56:58;;;;;;;0.40;0.40;;;;;;;;;;5057272;28;20029;-81
2023/01/09 11:59:27;;;;;;;2.40;0.40;;;;;;;;;;5057994;28;20550;-82
2023/01/09 12:02:05;;;;;;;1.42;0.50;;;;;;;;;;5075076;28;20119;-81
2023/01/09 12:04:35;;;;;;;0.68;0.45;;;;;;;;;;5073171;28;20032;-81
2023/01/09 12:07:22;;;;;;;1.52;0.43;;;;;;;;;;5056552;28;20032;-81
2023/01/09 12:10:08;;;;;;;0.73;0.30;;;;;;;;;;5074032;28;20058;-81
2023/01/09 12:12:50;;;;;;;1.02;0.30;;;;;;;;;;5072789;28;20028;-82
2023/01/09 12:15:26;;;;;;;2.25;0.50;;;;;;;;;;5056002;28;20037;-80
2023/01/09 12:18:12;;;;;;;1.35;0.30;;;;;;;;;;5075310;28;20024;-82
2023/01/09 12:21:10;;;;;;;2.65;0.50;;;;;;;;;;5072936;28;20040;-83
2023/01/09 12:23:41;;;;;;;0.95;0.50;;;;;;;;;;5072428;28;20044;-82
2023/01/09 12:26:16;;;;;;;1.75;0.32;;;;;;;;;;5054152;28;20098;-82
2023/01/09 12:28:57;;;;;;;2.15;0.30;;;;;;;;;;5073098;28;20044;-82
2023/01/09 12:31:25;;;;;;;2.20;0.40;;;;;;;;;;5073355;28;20028;-81
2023/01/09 12:33:53;;;;;;;4.05;0.40;;;;;;;;;;5054606;28;20047;-83
2023/01/09 12:36:19;;;;;;;0.40;0.30;;;;;;;;;;5036527;28;20041;-82
2023/01/09 12:38:55;;;;;;;0.73;0.28;;;;;;;;;;5055520;28;20052;-82
2023/01/09 12:41:32;;;;;;;4.60;1.90;;;;;;;;;;5073736;28;20074;-83
2023/01/09 12:44:32;;;;;;;9.50;4.20;;;;;;;;;;5055207;28;20128;-82
2023/01/09 12:47:31;;;;;;;1.38;0.88;;;;;;;;;;5073499;28;20477;-83
2023/01/09 12:50:49;;;;;;;2.42;0.50;;;;;;;;;;5055849;28;20029;-84
2023/01/09 12:53:31;;;;;;;8.73;5.00;;;;;;;;;;5031498;28;20056;-83
2023/01/09 12:56:25;;;;;;;3.97;1.08;;;;;;;;;;5055678;28;20075;-83
2023/01/09 12:59:00;;;;;;;2.88;0.90;;;;;;;;;;5056106;28;20032;-83
2023/01/09 13:01:35;;;;;;;2.20;0.70;;;;;;;;;;5073415;28;20040;-83
2023/01/09 13:04:22;;;;;;;3.42;1.60;;;;;;;;;;5073510;28;20392;-83
2023/01/09 13:06:58;;;;;;;1.83;0.70;;;;;;;;;;5074551;28;20033;-84
2023/01/09 13:09:30;;;;;;;3.88;1.23;;;;;;;;;;5074352;28;20473;-83
2023/01/09 13:12:11;;;;;;;1.88;1.02;;;;;;;;;;5074939;28;20114;-83
2023/01/09 13:14:45;;;;;;;2.28;1.30;;;;;;;;;;5055592;28;20033;-84
2023/01/09 13:17:17;;;;;;;2.17;1.15;;;;;;;;;;5056372;28;20033;-83
2023/01/09 13:19:44;;;;;;;11.27;7.28;;;;;;;;;;5056766;28;20044;-83
2023/01/09 13:22:12;;;;;;;12.73;6.30;;;;;;;;;;5074459;28;20033;-83
2023/01/09 13:24:46;;;;;;;5.60;1.90;;;;;;;;;;5059937;28;20037;-84
2023/01/09 13:27:18;;;;;;;6.50;3.40;;;;;;;;;;5081626;28;20033;-82
2023/01/09 13:29:47;;;;;;;2.42;1.60;;;;;;;;;;5080014;28;20072;-83
2023/01/09 13:32:23;;;;;;;8.95;4.43;;;;;;;;;;5079892;28;20504;-83
2023/01/09 13:34:52;;;;;;;4.97;2.80;;;;;;;;;;5079575;28;20552;-83
2023/01/09 13:37:26;;;;;;;3.78;1.77;;;;;;;;;;5079919;28;20036;-82
2023/01/09 13:39:57;;;;;;;3.83;1.80;;;;;;;;;;5080557;28;20037;-84
2023/01/09 13:42:44;;;;;;;2.83;1.70;;;;;;;;;;5083402;28;20048;-83
2023/01/09 13:45:16;;;;;;;7.43;4.60;;;;;;;;;;5079544;28;20032;-83
2023/01/09 13:47:41;;;;;;;9.90;4.97;;;;;;;;;;5079686;28;20468;-83
2023/01/09 13:50:10;;;;;;;4.95;2.50;;;;;;;;;;5079703;28;20044;-84
2023/01/09 13:52:42;;;;;;;4.15;1.58;;;;;;;;;;5080148;28;20043;-83
2023/01/09 13:55:11;;;;;;;5.90;3.53;;;;;;;;;;5079748;28;20037;-84
2023/01/09 13:57:40;;;;;;;7.03;2.63;;;;;;;;;;5061828;28;20029;-83
2023/01/09 14:00:06;;;;;;;8.80;3.83;;;;;;;;;;5061441;28;20040;-83
2023/01/09 14:02:37;;;;;;;5.88;3.50;;;;;;;;;;5078860;28;20040;-82
2023/01/09 14:05:07;;;;;;;2.30;1.20;;;;;;;;;;5078721;28;20042;-82
2023/01/09 14:07:41;;;;;;;8.90;4.72;;;;;;;;;;5062322;28;20063;-83
2023/01/09 14:10:23;;;;;;;7.50;2.50;;;;;;;;;;5079582;28;20045;-83
2023/01/09 14:12:51;;;;;;;3.20;1.85;;;;;;;;;;5081423;28;20036;-83
2023/01/09 14:15:25;;;;;;;3.03;1.90;;;;;;;;;;5079148;28;20044;-83
2023/01/09 14:17:59;;;;;;;3.88;1.95;;;;;;;;;;5078794;28;20039;-80
2023/01/09 14:20:26;;;;;;;;;;;;;;;;;;5060939;28;20119;-83
2023/01/09 14:22:57;;;;;;;18.60;9.48;;;;;;;;;;5078717;28;19909;-85
2023/01/09 14:25:25;;;;;;;22.70;11.77;;;;;;;;;;5060170;28;20048;-85
2023/01/09 14:27:53;;;;;;;2.47;0.90;;;;;;;;;;5059982;28;20047;-82
2023/01/09 14:30:25;;;;;;;2.20;0.80;;;;;;;;;;5078571;28;20041;-82
2023/01/09 14:33:02;;;;;;;12.27;5.97;;;;;;;;;;5059586;28;20036;-81
2023/01/09 14:35:41;;;;;;;2.80;1.52;;;;;;;;;;5076715;28;20036;-81
2023/01/09 14:38:32;;;;;;;4.38;2.05;;;;;;;;;;5058940;28;20028;-82
2023/01/09 14:41:16;;;;;;;8.48;3.97;;;;;;;;;;5074714;28;20425;-82
2023/01/09 14:43:56;;;;;;;5.43;2.53;;;;;;;;;;5075028;28;20043;-82
2023/01/09 14:46:22;;;;;;;1.90;0.60;;;;;;;;;;5075183;28;20036;-81
2023/01/09 14:49:15;;;;;;;27.92;11.20;;;;;;;;;;5075851;28;20090;-81
2023/01/09 14:51:44;;;;;;;14.88;5.38;;;;;;;;;;5057841;28;20024;-81
2023/01/09 14:54:37;;;;;;;29.15;10.95;;;;;;;;;;5074350;28;20036;-82
2023/01/09 14:57:21;;;;;;;32.88;15.10;;;;;;;;;;5057556;28;20032;-82
2023/01/09 14:59:56;;;;;;;14.45;6.75;;;;;;;;;;5075402;28;20115;-83
2023/01/09 15:02:23;;;;;;;15.05;6.65;;;;;;;;;;5075047;28;20040;-81
2023/01/09 15:04:48;;;;;;;8.18;4.32;;;;;;;;;;5075011;28;20384;-82
2023/01/09 15:07:29;;;;;;;5.25;1.85;;;;;;;;;;5075190;28;20039;-82
2023/01/09 15:10:00;;;;;;;5.63;3.05;;;;;;;;;;5057365;28;20430;-82
2023/01/09 15:12:27;;;;;;;17.30;8.65;;;;;;;;;;5076032;28;20086;-82
2023/01/09 15:14:56;;;;;;;13.20;6.47;;;;;;;;;;5056722;28;20026;-82
2023/01/09 15:17:29;;;;;;;6.07;2.40;;;;;;;;;;5075390;28;20041;-82